aviador You're here:

KFCM Decoded Metar

MNPLS/FLYING CLD in MN, USA
Report Time2017-12-16 15:53:00
UTC Time2017-12-16 16:26:48
Flight Rules ifr IFR
Wind050° at 07 kt
W.Decomp.*RWY 36: 4.8 kt HW 5.1 kt RCW
RWY 10: 4.2 kt HW 5.6 kt LCW
W.Rank050° ranks 36
Current wind is above 050° avg. (6.4)
Visibility8047 m
Phenomena:Haze
Clouds:Overcast 008 Hf
Expected CloudBase > 1,200 ft AGL from Temp-Dew spread
Ceiling800 ft
Temp-2°C (ISA -15)
Dew Point-5°C (80% RH)
AAT-7.1°C
QNH1010 hPa
Density Alt-774 ft
Elevation919 ft
Report Wrong Elevation
Raw Report
METAR KFCM 161553Z 05007KT 5SM HZ OVC008 M02/M05 A2982 RMK AO2 SLP110
T10221050=

Extra information for KFCM:More info

Metar Taf Metar & Taf Last 4 Metars F.Rules Stats Wind Profile Meteogram Temp Stats Airport Information Weather charts Add Link Nearby VenuesMetar ALERT Operation Metar Decoded Social comments

AIRNAV info for KFCM